Change the Weather History Date:

Wednesday, November 14, 2012

  Actual Average (KPYM) Record (KPYM)
Temperature  
Mean Temperature 44 °F -  
Max Temperature 46 °F 50 °F 72 °F (1959)
Min Temperature 42 °F 32 °F 15 °F (1986)
Degree Days  
Heating Degree Days 21    
Moisture  
Dew Point 33 °F    
Average Humidity 62    
Maximum Humidity 76    
Minimum Humidity 57    
Precipitation  
Precipitation 0.00 in - - ()
Sea Level Pressure  
Sea Level Pressure 30.48 in    
Wind  
Wind Speed 11 mph (North)    
Max Wind Speed 16 mph    
Max Gust Speed 25 mph    
Visibility 10 miles    
Events      
Averages and records for this station are not official NWS values.
T = Trace of Precipitation, MM = Missing Value Source: NWS Daily Summary

Daily Weather History Graph

Daily Weather History Graph

Search for Another Location

Airport or City:

Trip Planner

Search our weather history database for the weather conditions in past years. The results will help you decide how hot, cold, wet, or windy it might be!

Date:

Astronomy

Nov. 14, 2012 Rise Set
Actual Time 6:32 AM EST 4:21 PM EST
Civil Twilight 6:02 AM EST 4:51 PM EST
Nautical Twilight 5:28 AM EST 5:25 PM EST
Astronomical Twilight 4:55 AM EST 5:58 PM EST
Moon 7:18 AM EST (11/14) 5:06 PM EST (11/14)
Length of Visible Light 10h 49m
Length of Day
9h 49m
New Moon, 1% of the Moon is Illuminated
Nov 14
New Moon
Nov 20
First Quarter
Nov 28
Full
Dec 6
Last Quarter
Dec 13
New

Hourly Weather History & Observations

Time (EST) Temp. Windchill Dew Point Humidity Pressure Visibility Wind Dir Wind Speed Gust Speed Precip Events Conditions
12:15 AM 44.6 °F 39.2 °F 37.4 °F 76% 30.42 in 10.0 mi NNE 10.4 mph 18.4 mph N/A   Light Drizzle
12:35 AM 46.4 °F 41.1 °F 35.6 °F 66% 30.42 in 10.0 mi NNE 11.5 mph 18.4 mph N/A   Light Drizzle
12:55 AM 46.4 °F 41.5 °F 33.8 °F 62% 30.41 in 10.0 mi North 10.4 mph 17.3 mph N/A   Light Drizzle
1:15 AM 46.4 °F 40.7 °F 33.8 °F 62% 30.40 in 10.0 mi North 12.7 mph 20.7 mph N/A   Light Drizzle
1:35 AM 46.4 °F 41.1 °F 33.8 °F 62% 30.43 in 10.0 mi North 11.5 mph 18.4 mph N/A   Light Drizzle
1:55 AM 46.4 °F 41.5 °F 33.8 °F 62% 30.42 in 10.0 mi North 10.4 mph 19.6 mph N/A   Overcast
2:15 AM 46.4 °F 41.1 °F 33.8 °F 62% 30.43 in 10.0 mi NNE 11.5 mph - N/A   Overcast
2:35 AM 46.4 °F 41.5 °F 35.6 °F 66% 30.43 in 10.0 mi North 10.4 mph 24.2 mph N/A   Overcast
2:55 AM 46.4 °F 41.9 °F 33.8 °F 62% 30.42 in 10.0 mi NNE 9.2 mph 20.7 mph N/A   Overcast
3:15 AM 46.4 °F 41.5 °F 35.6 °F 66% 30.43 in 10.0 mi North 10.4 mph 18.4 mph N/A   Overcast
3:35 AM 46.4 °F 41.5 °F 35.6 °F 66% 30.43 in 10.0 mi North 10.4 mph 17.3 mph N/A   Overcast
3:55 AM 44.6 °F 39.2 °F 35.6 °F 71% 30.44 in 10.0 mi NNE 10.4 mph - N/A   Overcast
4:15 AM 44.6 °F 38.8 °F 35.6 °F 71% 30.44 in 10.0 mi North 11.5 mph 19.6 mph N/A   Overcast
4:35 AM 44.6 °F 39.2 °F 35.6 °F 71% 30.45 in 10.0 mi North 10.4 mph 20.7 mph N/A   Overcast
4:55 AM 44.6 °F 37.4 °F 35.6 °F 71% 30.45 in 10.0 mi North 16.1 mph 20.7 mph N/A   Overcast
5:15 AM 44.6 °F 38.4 °F 33.8 °F 66% 30.46 in 10.0 mi North 12.7 mph 20.7 mph N/A   Overcast
5:35 AM 44.6 °F 38.4 °F 33.8 °F 66% 30.47 in 10.0 mi North 12.7 mph 20.7 mph N/A   Overcast
5:55 AM 44.6 °F 38.1 °F 33.8 °F 66% 30.48 in 10.0 mi North 13.8 mph 21.9 mph N/A   Overcast
6:15 AM 44.6 °F 39.2 °F 32.0 °F 61% 30.48 in 10.0 mi North 10.4 mph 19.6 mph N/A   Mostly Cloudy
6:35 AM 44.6 °F 37.8 °F 32.0 °F 61% 30.49 in 10.0 mi North 15.0 mph 20.7 mph N/A   Mostly Cloudy
6:55 AM 42.8 °F 36.2 °F 32.0 °F 66% 30.49 in 10.0 mi North 12.7 mph 24.2 mph N/A   Mostly Cloudy
7:15 AM 42.8 °F 35.4 °F 32.0 °F 66% 30.50 in 10.0 mi North 15.0 mph 24.2 mph N/A   Mostly Cloudy
7:35 AM 42.8 °F 36.6 °F 32.0 °F 66% 30.51 in 10.0 mi North 11.5 mph 20.7 mph N/A   Partly Cloudy
7:55 AM 44.6 °F 38.4 °F 32.0 °F 61% 30.51 in 10.0 mi North 12.7 mph 21.9 mph N/A   Partly Cloudy
8:15 AM 44.6 °F 37.8 °F 32.0 °F 61% 30.51 in 10.0 mi NNW 15.0 mph 21.9 mph N/A   Scattered Clouds
8:35 AM 44.6 °F 38.4 °F 32.0 °F 61% 30.52 in 10.0 mi North 12.7 mph 19.6 mph N/A   Mostly Cloudy
8:55 AM 44.6 °F 37.8 °F 32.0 °F 61% 30.52 in 10.0 mi North 15.0 mph 23.0 mph N/A   Mostly Cloudy
9:15 AM 44.6 °F 38.8 °F 32.0 °F 61% 30.52 in 10.0 mi North 11.5 mph 25.3 mph N/A   Mostly Cloudy
9:35 AM 44.6 °F 39.7 °F 32.0 °F 61% 30.52 in 10.0 mi North 9.2 mph 19.6 mph N/A   Mostly Cloudy
9:55 AM 44.6 °F 38.1 °F 32.0 °F 61% 30.53 in 10.0 mi NNW 13.8 mph 23.0 mph N/A   Overcast
10:15 AM 44.6 °F 39.7 °F 32.0 °F 61% 30.52 in 10.0 mi North 9.2 mph 19.6 mph N/A   Overcast
10:35 AM 44.6 °F 39.2 °F 33.8 °F 66% 30.52 in 10.0 mi North 10.4 mph 25.3 mph N/A   Overcast
10:55 AM 44.6 °F 38.8 °F 32.0 °F 61% 30.51 in 10.0 mi North 11.5 mph 19.6 mph N/A   Mostly Cloudy
11:15 AM 44.6 °F 39.2 °F 32.0 °F 61% 30.51 in 10.0 mi North 10.4 mph 17.3 mph N/A   Mostly Cloudy
11:35 AM 44.6 °F 38.8 °F 32.0 °F 61% 30.50 in 10.0 mi North 11.5 mph 18.4 mph N/A   Overcast
11:55 AM 44.6 °F 38.8 °F 32.0 °F 61% 30.50 in 10.0 mi North 11.5 mph 21.9 mph N/A   Overcast
12:15 PM 44.6 °F 37.4 °F 32.0 °F 61% 30.50 in 10.0 mi North 16.1 mph 21.9 mph N/A   Overcast
12:35 PM 44.6 °F 38.4 °F 32.0 °F 61% 30.50 in 10.0 mi North 12.7 mph 21.9 mph N/A   Mostly Cloudy
12:55 PM 46.4 °F 40.4 °F 32.0 °F 57% 30.50 in 10.0 mi NNW 13.8 mph 21.9 mph N/A   Mostly Cloudy
1:15 PM 44.6 °F 39.7 °F 32.0 °F 61% 30.49 in 10.0 mi North 9.2 mph 21.9 mph N/A   Mostly Cloudy
1:35 PM 44.6 °F 38.8 °F 32.0 °F 61% 30.49 in 10.0 mi North 11.5 mph 23.0 mph N/A   Mostly Cloudy
1:55 PM 44.6 °F 38.4 °F 32.0 °F 61% 30.48 in 10.0 mi North 12.7 mph 19.6 mph N/A   Mostly Cloudy
2:15 PM 44.6 °F 39.2 °F 32.0 °F 61% 30.48 in 10.0 mi North 10.4 mph 21.9 mph N/A   Scattered Clouds
2:35 PM 44.6 °F 38.8 °F 32.0 °F 61% 30.48 in 10.0 mi North 11.5 mph 21.9 mph N/A   Clear
2:55 PM 44.6 °F 38.4 °F 32.0 °F 61% 30.48 in 10.0 mi North 12.7 mph 21.9 mph N/A   Clear
3:15 PM 44.6 °F 37.8 °F 32.0 °F 61% 30.48 in 10.0 mi North 15.0 mph 19.6 mph N/A   Clear
3:35 PM 44.6 °F 38.1 °F 32.0 °F 61% 30.48 in 10.0 mi North 13.8 mph 19.6 mph N/A   Partly Cloudy
3:55 PM 44.6 °F 38.8 °F 32.0 °F 61% 30.48 in 10.0 mi North 11.5 mph 20.7 mph N/A   Clear
4:15 PM 44.6 °F 39.2 °F 30.2 °F 57% 30.48 in 10.0 mi North 10.4 mph 19.6 mph N/A   Clear
4:35 PM 44.6 °F 39.2 °F 30.2 °F 57% 30.49 in 10.0 mi North 10.4 mph 17.3 mph N/A   Clear
4:55 PM 44.6 °F 40.2 °F 32.0 °F 61% 30.49 in 10.0 mi NNW 8.1 mph 18.4 mph N/A   Clear
5:15 PM 44.6 °F 40.2 °F 30.2 °F 57% 30.49 in 10.0 mi North 8.1 mph 17.3 mph N/A   Clear
5:35 PM 44.6 °F 38.8 °F 30.2 °F 57% 30.49 in 10.0 mi North 11.5 mph 18.4 mph N/A   Clear
5:55 PM 44.6 °F 39.7 °F 30.2 °F 57% 30.49 in 10.0 mi NNW 9.2 mph - N/A   Clear
6:15 PM 44.6 °F 40.7 °F 30.2 °F 57% 30.49 in 10.0 mi North 6.9 mph - N/A   Clear
6:35 PM 44.6 °F 38.8 °F 32.0 °F 61% 30.49 in 10.0 mi North 11.5 mph 19.6 mph N/A   Partly Cloudy
6:55 PM 44.6 °F 39.7 °F 32.0 °F 61% 30.50 in 10.0 mi North 9.2 mph 21.9 mph N/A   Clear
7:15 PM 44.6 °F 39.2 °F 32.0 °F 61% 30.50 in 10.0 mi North 10.4 mph 20.7 mph N/A   Partly Cloudy
7:35 PM 44.6 °F 38.8 °F 32.0 °F 61% 30.49 in 10.0 mi North 11.5 mph 18.4 mph N/A   Scattered Clouds
7:55 PM 44.6 °F 37.8 °F 32.0 °F 61% 30.49 in 10.0 mi North 15.0 mph 21.9 mph N/A   Scattered Clouds
8:15 PM 44.6 °F 38.8 °F 32.0 °F 61% 30.48 in 10.0 mi North 11.5 mph 21.9 mph N/A   Scattered Clouds
8:35 PM 44.6 °F 38.4 °F 32.0 °F 61% 30.48 in 10.0 mi North 12.7 mph 19.6 mph N/A   Scattered Clouds
8:55 PM 44.6 °F 39.2 °F 32.0 °F 61% 30.48 in 10.0 mi North 10.4 mph 20.7 mph N/A   Scattered Clouds
9:15 PM 44.6 °F 39.7 °F 32.0 °F 61% 30.47 in 10.0 mi North 9.2 mph 17.3 mph N/A   Mostly Cloudy
9:35 PM 44.6 °F 39.2 °F 32.0 °F 61% 30.47 in 10.0 mi North 10.4 mph 20.7 mph N/A   Scattered Clouds
9:55 PM 44.6 °F 39.2 °F 32.0 °F 61% 30.47 in 10.0 mi North 10.4 mph 19.6 mph N/A   Mostly Cloudy
10:15 PM 44.6 °F 38.4 °F 32.0 °F 61% 30.48 in 10.0 mi North 12.7 mph 18.4 mph N/A   Mostly Cloudy
10:35 PM 44.6 °F 39.7 °F 32.0 °F 61% 30.48 in 10.0 mi NNE 9.2 mph 20.7 mph N/A   Mostly Cloudy
10:55 PM 44.6 °F 38.4 °F 32.0 °F 61% 30.48 in 10.0 mi NNE 12.7 mph 18.4 mph N/A   Mostly Cloudy
11:15 PM 44.6 °F 37.8 °F 32.0 °F 61% 30.46 in 10.0 mi North 15.0 mph 23.0 mph N/A   Mostly Cloudy
11:35 PM 44.6 °F 38.4 °F 32.0 °F 61% 30.46 in 10.0 mi NNE 12.7 mph 19.6 mph N/A   Mostly Cloudy
11:55 PM 44.6 °F 38.8 °F 33.8 °F 66% 30.45 in 10.0 mi NNE 11.5 mph 17.3 mph N/A   Overcast